sensor_id;sensor_type;location;lat;lon;timestamp;P1;durP1;ratioP1;P2;durP2;ratioP2
4206;SDS011;2117;47.972;7.830;2023-09-12T01:02:12;14.07;;;9.83;;
4206;SDS011;2117;47.972;7.830;2023-09-12T01:04:37;13.77;;;9.30;;
4206;SDS011;2117;47.972;7.830;2023-09-12T01:07:03;12.40;;;9.60;;
4206;SDS011;2117;47.972;7.830;2023-09-12T01:09:30;16.57;;;10.20;;
4206;SDS011;2117;47.972;7.830;2023-09-12T01:11:56;11.63;;;10.33;;
4206;SDS011;2117;47.972;7.830;2023-09-12T01:14:22;10.50;;;9.40;;
4206;SDS011;2117;47.972;7.830;2023-09-12T01:16:48;10.83;;;9.37;;
4206;SDS011;2117;47.972;7.830;2023-09-12T01:19:14;12.07;;;10.70;;
4206;SDS011;2117;47.972;7.830;2023-09-12T01:21:46;11.70;;;10.23;;
4206;SDS011;2117;47.972;7.830;2023-09-12T01:27:27;13.37;;;9.30;;
4206;SDS011;2117;47.972;7.830;2023-09-12T01:29:57;12.80;;;10.50;;
4206;SDS011;2117;47.972;7.830;2023-09-12T01:32:29;10.60;;;9.50;;
4206;SDS011;2117;47.972;7.830;2023-09-12T01:34:55;10.70;;;9.43;;
4206;SDS011;2117;47.972;7.830;2023-09-12T01:37:20;12.13;;;10.77;;
4206;SDS011;2117;47.972;7.830;2023-09-12T01:39:46;13.40;;;10.47;;
4206;SDS011;2117;47.972;7.830;2023-09-12T01:42:15;12.63;;;11.33;;
4206;SDS011;2117;47.972;7.830;2023-09-12T01:44:43;11.90;;;10.70;;
4206;SDS011;2117;47.972;7.830;2023-09-12T01:47:10;12.30;;;10.20;;
4206;SDS011;2117;47.972;7.830;2023-09-12T01:49:37;12.83;;;11.27;;
4206;SDS011;2117;47.972;7.830;2023-09-12T01:52:05;12.50;;;10.03;;
4206;SDS011;2117;47.972;7.830;2023-09-12T01:54:32;12.63;;;10.07;;
4206;SDS011;2117;47.972;7.830;2023-09-12T01:56:59;13.27;;;11.07;;
4206;SDS011;2117;47.972;7.830;2023-09-12T01:59:25;11.60;;;10.40;;
4206;SDS011;2117;47.972;7.830;2023-09-12T02:01:51;11.03;;;9.83;;
4206;SDS011;2117;47.972;7.830;2023-09-12T02:04:17;12.40;;;10.40;;
4206;SDS011;2117;47.972;7.830;2023-09-12T02:06:42;13.47;;;10.60;;
4206;SDS011;2117;47.972;7.830;2023-09-12T02:09:08;10.97;;;9.63;;
4206;SDS011;2117;47.972;7.830;2023-09-12T02:11:33;11.70;;;10.27;;
4206;SDS011;2117;47.972;7.830;2023-09-12T02:13:59;11.27;;;9.70;;
4206;SDS011;2117;47.972;7.830;2023-09-12T02:16:24;13.83;;;11.10;;
4206;SDS011;2117;47.972;7.830;2023-09-12T02:18:50;10.97;;;9.53;;
4206;SDS011;2117;47.972;7.830;2023-09-12T02:21:15;14.80;;;10.23;;
4206;SDS011;2117;47.972;7.830;2023-09-12T02:23:41;12.73;;;11.43;;
4206;SDS011;2117;47.972;7.830;2023-09-12T02:26:07;11.20;;;10.07;;
4206;SDS011;2117;47.972;7.830;2023-09-12T02:28:33;12.80;;;10.33;;
4206;SDS011;2117;47.972;7.830;2023-09-12T02:30:58;12.57;;;11.27;;
4206;SDS011;2117;47.972;7.830;2023-09-12T02:33:24;12.70;;;11.40;;
4206;SDS011;2117;47.972;7.830;2023-09-12T02:35:49;10.77;;;9.67;;
4206;SDS011;2117;47.972;7.830;2023-09-12T02:38:15;15.87;;;11.00;;
4206;SDS011;2117;47.972;7.830;2023-09-12T02:40:41;12.73;;;10.23;;
4206;SDS011;2117;47.972;7.830;2023-09-12T02:43:07;12.97;;;10.87;;
4206;SDS011;2117;47.972;7.830;2023-09-12T02:45:32;11.23;;;10.17;;
4206;SDS011;2117;47.972;7.830;2023-09-12T02:47:58;11.90;;;10.80;;
4206;SDS011;2117;47.972;7.830;2023-09-12T02:50:23;11.03;;;9.87;;
4206;SDS011;2117;47.972;7.830;2023-09-12T02:52:49;12.43;;;10.23;;
4206;SDS011;2117;47.972;7.830;2023-09-12T02:55:14;11.43;;;10.37;;
4206;SDS011;2117;47.972;7.830;2023-09-12T02:57:40;14.23;;;10.10;;
4206;SDS011;2117;47.972;7.830;2023-09-12T03:00:06;11.90;;;10.30;;
4206;SDS011;2117;47.972;7.830;2023-09-12T03:02:33;12.43;;;10.33;;
4206;SDS011;2117;47.972;7.830;2023-09-12T03:04:58;11.67;;;10.37;;
4206;SDS011;2117;47.972;7.830;2023-09-12T03:07:24;12.33;;;10.97;;
4206;SDS011;2117;47.972;7.830;2023-09-12T03:09:50;12.83;;;11.53;;
4206;SDS011;2117;47.972;7.830;2023-09-12T03:12:15;13.80;;;11.33;;
4206;SDS011;2117;47.972;7.830;2023-09-12T03:14:41;13.20;;;11.40;;
4206;SDS011;2117;47.972;7.830;2023-09-12T03:17:06;12.83;;;10.67;;
4206;SDS011;2117;47.972;7.830;2023-09-12T03:19:32;12.50;;;10.90;;
4206;SDS011;2117;47.972;7.830;2023-09-12T03:21:57;12.47;;;10.53;;
4206;SDS011;2117;47.972;7.830;2023-09-12T03:24:23;12.80;;;11.17;;
4206;SDS011;2117;47.972;7.830;2023-09-12T03:26:50;16.27;;;11.53;;
4206;SDS011;2117;47.972;7.830;2023-09-12T03:29:16;12.47;;;11.10;;
4206;SDS011;2117;47.972;7.830;2023-09-12T03:31:41;12.80;;;10.63;;
4206;SDS011;2117;47.972;7.830;2023-09-12T03:34:07;16.50;;;11.90;;
4206;SDS011;2117;47.972;7.830;2023-09-12T03:36:32;12.47;;;11.23;;
4206;SDS011;2117;47.972;7.830;2023-09-12T03:38:58;13.90;;;11.67;;
4206;SDS011;2117;47.972;7.830;2023-09-12T03:41:24;14.50;;;11.87;;
4206;SDS011;2117;47.972;7.830;2023-09-12T03:43:52;14.10;;;12.33;;
4206;SDS011;2117;47.972;7.830;2023-09-12T03:46:19;11.97;;;10.07;;
4206;SDS011;2117;47.972;7.830;2023-09-12T03:48:44;15.50;;;12.37;;
4206;SDS011;2117;47.972;7.830;2023-09-12T03:51:10;13.37;;;11.97;;
4206;SDS011;2117;47.972;7.830;2023-09-12T03:53:36;12.33;;;11.00;;
4206;SDS011;2117;47.972;7.830;2023-09-12T03:56:02;23.93;;;12.83;;
4206;SDS011;2117;47.972;7.830;2023-09-12T03:58:27;14.40;;;11.60;;
4206;SDS011;2117;47.972;7.830;2023-09-12T04:00:53;16.53;;;12.77;;
4206;SDS011;2117;47.972;7.830;2023-09-12T04:03:19;19.03;;;12.90;;
4206;SDS011;2117;47.972;7.830;2023-09-12T04:05:46;16.00;;;12.70;;
4206;SDS011;2117;47.972;7.830;2023-09-12T04:08:12;13.80;;;12.30;;
4206;SDS011;2117;47.972;7.830;2023-09-12T04:10:38;19.27;;;13.13;;
4206;SDS011;2117;47.972;7.830;2023-09-12T04:13:03;15.07;;;11.43;;
4206;SDS011;2117;47.972;7.830;2023-09-12T04:15:29;16.50;;;12.40;;
4206;SDS011;2117;47.972;7.830;2023-09-12T04:17:54;14.00;;;11.40;;
4206;SDS011;2117;47.972;7.830;2023-09-12T04:20:20;15.90;;;12.17;;
4206;SDS011;2117;47.972;7.830;2023-09-12T04:22:45;18.47;;;12.60;;
4206;SDS011;2117;47.972;7.830;2023-09-12T04:25:11;15.87;;;11.97;;
4206;SDS011;2117;47.972;7.830;2023-09-12T04:27:37;14.20;;;12.10;;
4206;SDS011;2117;47.972;7.830;2023-09-12T04:30:03;16.70;;;13.67;;
4206;SDS011;2117;47.972;7.830;2023-09-12T04:32:29;14.47;;;11.33;;
4206;SDS011;2117;47.972;7.830;2023-09-12T04:34:54;15.47;;;11.43;;
4206;SDS011;2117;47.972;7.830;2023-09-12T04:37:20;18.00;;;13.13;;
4206;SDS011;2117;47.972;7.830;2023-09-12T04:39:45;16.20;;;13.97;;
4206;SDS011;2117;47.972;7.830;2023-09-12T04:42:11;16.47;;;12.57;;
4206;SDS011;2117;47.972;7.830;2023-09-12T04:44:38;16.40;;;12.63;;
4206;SDS011;2117;47.972;7.830;2023-09-12T04:47:05;16.17;;;13.00;;
4206;SDS011;2117;47.972;7.830;2023-09-12T04:49:31;17.20;;;13.93;;
4206;SDS011;2117;47.972;7.830;2023-09-12T04:51:56;21.33;;;13.97;;
4206;SDS011;2117;47.972;7.830;2023-09-12T04:54:22;14.30;;;12.80;;
4206;SDS011;2117;47.972;7.830;2023-09-12T04:56:47;19.07;;;12.90;;
4206;SDS011;2117;47.972;7.830;2023-09-12T04:59:13;16.23;;;14.07;;
4206;SDS011;2117;47.972;7.830;2023-09-12T05:01:39;16.23;;;13.73;;
4206;SDS011;2117;47.972;7.830;2023-09-12T05:04:05;17.53;;;14.50;;
4206;SDS011;2117;47.972;7.830;2023-09-12T05:06:31;14.60;;;13.10;;
4206;SDS011;2117;47.972;7.830;2023-09-12T05:08:56;15.10;;;13.00;;
4206;SDS011;2117;47.972;7.830;2023-09-12T05:11:22;13.50;;;10.73;;
4206;SDS011;2117;47.972;7.830;2023-09-12T05:13:49;16.63;;;12.00;;
4206;SDS011;2117;47.972;7.830;2023-09-12T05:16:14;13.60;;;11.33;;
4206;SDS011;2117;47.972;7.830;2023-09-12T05:18:40;13.50;;;11.20;;
4206;SDS011;2117;47.972;7.830;2023-09-12T05:21:05;16.87;;;12.87;;
4206;SDS011;2117;47.972;7.830;2023-09-12T05:23:31;12.37;;;10.80;;
4206;SDS011;2117;47.972;7.830;2023-09-12T05:25:57;16.03;;;12.57;;
4206;SDS011;2117;47.972;7.830;2023-09-12T05:28:22;14.77;;;12.57;;
4206;SDS011;2117;47.972;7.830;2023-09-12T05:30:48;16.63;;;11.67;;
4206;SDS011;2117;47.972;7.830;2023-09-12T05:33:15;15.07;;;12.13;;
4206;SDS011;2117;47.972;7.830;2023-09-12T05:35:41;15.73;;;12.87;;
4206;SDS011;2117;47.972;7.830;2023-09-12T05:38:06;14.23;;;12.73;;
4206;SDS011;2117;47.972;7.830;2023-09-12T05:40:32;17.73;;;13.70;;
4206;SDS011;2117;47.972;7.830;2023-09-12T05:42:58;15.67;;;12.60;;
4206;SDS011;2117;47.972;7.830;2023-09-12T05:45:23;13.73;;;12.33;;
4206;SDS011;2117;47.972;7.830;2023-09-12T05:47:49;17.10;;;12.73;;
4206;SDS011;2117;47.972;7.830;2023-09-12T05:50:15;15.87;;;13.37;;
4206;SDS011;2117;47.972;7.830;2023-09-12T05:52:41;17.37;;;12.80;;
4206;SDS011;2117;47.972;7.830;2023-09-12T05:55:08;15.50;;;13.03;;
4206;SDS011;2117;47.972;7.830;2023-09-12T05:57:34;19.00;;;13.27;;
4206;SDS011;2117;47.972;7.830;2023-09-12T05:59:59;14.47;;;13.00;;
4206;SDS011;2117;47.972;7.830;2023-09-12T06:02:26;15.50;;;12.77;;
4206;SDS011;2117;47.972;7.830;2023-09-12T06:04:52;13.27;;;11.73;;
4206;SDS011;2117;47.972;7.830;2023-09-12T06:07:18;17.40;;;12.87;;
4206;SDS011;2117;47.972;7.830;2023-09-12T06:09:44;18.10;;;13.80;;
4206;SDS011;2117;47.972;7.830;2023-09-12T06:12:10;13.87;;;12.47;;
4206;SDS011;2117;47.972;7.830;2023-09-12T06:14:35;14.00;;;12.23;;
4206;SDS011;2117;47.972;7.830;2023-09-12T06:17:01;13.83;;;12.40;;
4206;SDS011;2117;47.972;7.830;2023-09-12T06:19:26;15.60;;;11.80;;
4206;SDS011;2117;47.972;7.830;2023-09-12T06:21:52;17.33;;;12.63;;
4206;SDS011;2117;47.972;7.830;2023-09-12T06:24:20;14.73;;;12.43;;
4206;SDS011;2117;47.972;7.830;2023-09-12T06:26:46;13.33;;;11.90;;
4206;SDS011;2117;47.972;7.830;2023-09-12T06:29:14;18.73;;;12.10;;
4206;SDS011;2117;47.972;7.830;2023-09-12T06:31:39;15.63;;;12.43;;
4206;SDS011;2117;47.972;7.830;2023-09-12T06:34:08;14.50;;;10.93;;
4206;SDS011;2117;47.972;7.830;2023-09-12T06:36:35;14.10;;;12.50;;
4206;SDS011;2117;47.972;7.830;2023-09-12T06:39:01;14.27;;;10.97;;
4206;SDS011;2117;47.972;7.830;2023-09-12T06:41:27;18.67;;;12.00;;
4206;SDS011;2117;47.972;7.830;2023-09-12T06:43:53;23.13;;;11.60;;
4206;SDS011;2117;47.972;7.830;2023-09-12T06:46:19;16.20;;;11.43;;
4206;SDS011;2117;47.972;7.830;2023-09-12T06:48:47;17.20;;;12.00;;
4206;SDS011;2117;47.972;7.830;2023-09-12T06:51:15;22.40;;;13.63;;
4206;SDS011;2117;47.972;7.830;2023-09-12T06:53:41;15.33;;;12.43;;
4206;SDS011;2117;47.972;7.830;2023-09-12T06:56:07;17.43;;;12.83;;
4206;SDS011;2117;47.972;7.830;2023-09-12T06:58:33;15.43;;;12.40;;
4206;SDS011;2117;47.972;7.830;2023-09-12T07:01:02;51.80;;;13.20;;
4206;SDS011;2117;47.972;7.830;2023-09-12T07:03:29;14.23;;;10.33;;
4206;SDS011;2117;47.972;7.830;2023-09-12T07:05:55;31.40;;;13.20;;
4206;SDS011;2117;47.972;7.830;2023-09-12T07:08:21;28.80;;;13.80;;
4206;SDS011;2117;47.972;7.830;2023-09-12T07:10:46;23.13;;;12.67;;
4206;SDS011;2117;47.972;7.830;2023-09-12T07:13:12;19.20;;;12.57;;
4206;SDS011;2117;47.972;7.830;2023-09-12T07:15:37;17.10;;;12.17;;
4206;SDS011;2117;47.972;7.830;2023-09-12T07:18:03;14.77;;;12.00;;
4206;SDS011;2117;47.972;7.830;2023-09-12T07:20:31;23.90;;;14.10;;
4206;SDS011;2117;47.972;7.830;2023-09-12T07:22:57;14.53;;;13.03;;
4206;SDS011;2117;47.972;7.830;2023-09-12T07:25:23;17.50;;;13.67;;
4206;SDS011;2117;47.972;7.830;2023-09-12T07:27:49;18.47;;;13.50;;
4206;SDS011;2117;47.972;7.830;2023-09-12T07:30:15;17.20;;;12.10;;
4206;SDS011;2117;47.972;7.830;2023-09-12T07:32:41;13.63;;;12.20;;
4206;SDS011;2117;47.972;7.830;2023-09-12T07:35:06;20.33;;;13.90;;
4206;SDS011;2117;47.972;7.830;2023-09-12T07:37:32;19.50;;;13.47;;
4206;SDS011;2117;47.972;7.830;2023-09-12T07:39:58;14.20;;;12.20;;
4206;SDS011;2117;47.972;7.830;2023-09-12T07:42:23;14.37;;;12.87;;
4206;SDS011;2117;47.972;7.830;2023-09-12T07:44:49;18.00;;;13.30;;
4206;SDS011;2117;47.972;7.830;2023-09-12T07:47:15;17.20;;;12.13;;
4206;SDS011;2117;47.972;7.830;2023-09-12T07:49:41;17.63;;;11.63;;
4206;SDS011;2117;47.972;7.830;2023-09-12T07:52:06;14.20;;;11.70;;
4206;SDS011;2117;47.972;7.830;2023-09-12T07:54:32;16.73;;;12.57;;
4206;SDS011;2117;47.972;7.830;2023-09-12T07:56:59;14.53;;;11.83;;
4206;SDS011;2117;47.972;7.830;2023-09-12T07:59:24;16.37;;;11.73;;
4206;SDS011;2117;47.972;7.830;2023-09-12T08:01:50;12.80;;;11.50;;
4206;SDS011;2117;47.972;7.830;2023-09-12T08:04:16;13.83;;;11.63;;
4206;SDS011;2117;47.972;7.830;2023-09-12T08:06:42;15.30;;;11.23;;
4206;SDS011;2117;47.972;7.830;2023-09-12T08:09:08;14.10;;;11.67;;
4206;SDS011;2117;47.972;7.830;2023-09-12T08:11:34;15.57;;;12.40;;
4206;SDS011;2117;47.972;7.830;2023-09-12T08:14:00;14.90;;;12.97;;
4206;SDS011;2117;47.972;7.830;2023-09-12T08:16:25;21.07;;;11.87;;
4206;SDS011;2117;47.972;7.830;2023-09-12T08:18:51;15.57;;;12.40;;
4206;SDS011;2117;47.972;7.830;2023-09-12T08:21:16;13.97;;;12.10;;
4206;SDS011;2117;47.972;7.830;2023-09-12T08:23:42;14.80;;;12.20;;
4206;SDS011;2117;47.972;7.830;2023-09-12T08:26:07;14.47;;;12.03;;
4206;SDS011;2117;47.972;7.830;2023-09-12T08:28:34;20.30;;;12.07;;
4206;SDS011;2117;47.972;7.830;2023-09-12T08:30:59;14.30;;;12.30;;
4206;SDS011;2117;47.972;7.830;2023-09-12T08:33:25;17.40;;;11.10;;
4206;SDS011;2117;47.972;7.830;2023-09-12T08:35:51;17.00;;;10.70;;
4206;SDS011;2117;47.972;7.830;2023-09-12T08:38:16;14.30;;;11.10;;
4206;SDS011;2117;47.972;7.830;2023-09-12T08:40:47;12.90;;;11.30;;
4206;SDS011;2117;47.972;7.830;2023-09-12T08:43:16;16.33;;;12.23;;
4206;SDS011;2117;47.972;7.830;2023-09-12T08:45:42;16.83;;;12.33;;
4206;SDS011;2117;47.972;7.830;2023-09-12T08:48:11;14.80;;;13.30;;
4206;SDS011;2117;47.972;7.830;2023-09-12T08:50:37;16.00;;;11.33;;
4206;SDS011;2117;47.972;7.830;2023-09-12T08:53:03;20.60;;;12.63;;
4206;SDS011;2117;47.972;7.830;2023-09-12T08:55:29;14.43;;;12.20;;
4206;SDS011;2117;47.972;7.830;2023-09-12T08:57:58;17.07;;;12.03;;
4206;SDS011;2117;47.972;7.830;2023-09-12T09:00:24;15.73;;;12.13;;
4206;SDS011;2117;47.972;7.830;2023-09-12T09:02:52;16.07;;;11.73;;
4206;SDS011;2117;47.972;7.830;2023-09-12T09:05:18;18.60;;;11.40;;
4206;SDS011;2117;47.972;7.830;2023-09-12T09:07:45;21.87;;;11.73;;
4206;SDS011;2117;47.972;7.830;2023-09-12T09:10:16;14.10;;;10.43;;
4206;SDS011;2117;47.972;7.830;2023-09-12T09:12:43;39.37;;;12.67;;
4206;SDS011;2117;47.972;7.830;2023-09-12T09:15:22;16.17;;;11.67;;
4206;SDS011;2117;47.972;7.830;2023-09-12T09:17:48;13.40;;;12.10;;
4206;SDS011;2117;47.972;7.830;2023-09-12T09:20:27;12.90;;;10.33;;
4206;SDS011;2117;47.972;7.830;2023-09-12T09:23:04;13.00;;;10.10;;
4206;SDS011;2117;47.972;7.830;2023-09-12T09:25:32;11.93;;;8.67;;
4206;SDS011;2117;47.972;7.830;2023-09-12T09:27:58;10.57;;;9.57;;
4206;SDS011;2117;47.972;7.830;2023-09-12T09:30:46;12.20;;;9.30;;
4206;SDS011;2117;47.972;7.830;2023-09-12T09:33:16;10.80;;;9.33;;
4206;SDS011;2117;47.972;7.830;2023-09-12T09:35:42;9.17;;;8.17;;
4206;SDS011;2117;47.972;7.830;2023-09-12T09:38:10;11.60;;;9.77;;
4206;SDS011;2117;47.972;7.830;2023-09-12T09:40:41;12.80;;;9.57;;
4206;SDS011;2117;47.972;7.830;2023-09-12T09:43:08;11.40;;;8.67;;
4206;SDS011;2117;47.972;7.830;2023-09-12T09:45:33;11.33;;;8.40;;
4206;SDS011;2117;47.972;7.830;2023-09-12T09:48:08;9.00;;;8.10;;
4206;SDS011;2117;47.972;7.830;2023-09-12T09:50:34;11.10;;;8.90;;
4206;SDS011;2117;47.972;7.830;2023-09-12T09:53:03;10.27;;;8.13;;
4206;SDS011;2117;47.972;7.830;2023-09-12T09:55:31;10.23;;;9.17;;
4206;SDS011;2117;47.972;7.830;2023-09-12T09:57:57;12.73;;;9.53;;
4206;SDS011;2117;47.972;7.830;2023-09-12T10:00:23;10.73;;;9.20;;
4206;SDS011;2117;47.972;7.830;2023-09-12T10:02:50;10.10;;;8.90;;
4206;SDS011;2117;47.972;7.830;2023-09-12T10:05:17;11.67;;;8.90;;
4206;SDS011;2117;47.972;7.830;2023-09-12T10:07:44;9.80;;;8.80;;
4206;SDS011;2117;47.972;7.830;2023-09-12T10:10:12;13.40;;;8.10;;
4206;SDS011;2117;47.972;7.830;2023-09-12T10:12:39;9.80;;;8.83;;
4206;SDS011;2117;47.972;7.830;2023-09-12T10:15:13;10.27;;;9.27;;
4206;SDS011;2117;47.972;7.830;2023-09-12T10:17:40;13.37;;;9.43;;
4206;SDS011;2117;47.972;7.830;2023-09-12T10:20:16;9.30;;;8.47;;
4206;SDS011;2117;47.972;7.830;2023-09-12T10:23:08;9.50;;;8.53;;
4206;SDS011;2117;47.972;7.830;2023-09-12T10:25:36;12.03;;;7.83;;
4206;SDS011;2117;47.972;7.830;2023-09-12T10:28:04;9.60;;;8.70;;
4206;SDS011;2117;47.972;7.830;2023-09-12T10:30:31;9.90;;;7.70;;
4206;SDS011;2117;47.972;7.830;2023-09-12T10:32:57;11.10;;;8.50;;
4206;SDS011;2117;47.972;7.830;2023-09-12T10:35:25;9.70;;;8.80;;
4206;SDS011;2117;47.972;7.830;2023-09-12T10:37:52;10.63;;;8.53;;
4206;SDS011;2117;47.972;7.830;2023-09-12T10:40:23;10.00;;;7.60;;
4206;SDS011;2117;47.972;7.830;2023-09-12T10:42:50;9.37;;;8.47;;
4206;SDS011;2117;47.972;7.830;2023-09-12T10:45:17;11.37;;;8.73;;
4206;SDS011;2117;47.972;7.830;2023-09-12T10:47:43;10.23;;;7.37;;
4206;SDS011;2117;47.972;7.830;2023-09-12T10:50:09;8.40;;;7.70;;
4206;SDS011;2117;47.972;7.830;2023-09-12T10:52:35;9.80;;;8.80;;
4206;SDS011;2117;47.972;7.830;2023-09-12T10:55:04;9.33;;;8.33;;
4206;SDS011;2117;47.972;7.830;2023-09-12T10:57:31;8.90;;;8.00;;
4206;SDS011;2117;47.972;7.830;2023-09-12T11:02:44;8.63;;;7.73;;
4206;SDS011;2117;47.972;7.830;2023-09-12T11:07:58;14.13;;;8.20;;
4206;SDS011;2117;47.972;7.830;2023-09-12T11:10:25;9.87;;;8.20;;
4206;SDS011;2117;47.972;7.830;2023-09-12T11:12:53;8.30;;;7.60;;
4206;SDS011;2117;47.972;7.830;2023-09-12T11:15:21;8.47;;;7.67;;
4206;SDS011;2117;47.972;7.830;2023-09-12T11:18:00;9.10;;;7.87;;
4206;SDS011;2117;47.972;7.830;2023-09-12T11:20:48;11.20;;;8.70;;
4206;SDS011;2117;47.972;7.830;2023-09-12T11:23:23;12.80;;;9.03;;
4206;SDS011;2117;47.972;7.830;2023-09-12T11:26:02;10.63;;;7.93;;
4206;SDS011;2117;47.972;7.830;2023-09-12T11:28:31;10.57;;;9.47;;
4206;SDS011;2117;47.972;7.830;2023-09-12T11:30:57;9.80;;;8.90;;
4206;SDS011;2117;47.972;7.830;2023-09-12T11:33:24;9.10;;;8.20;;
4206;SDS011;2117;47.972;7.830;2023-09-12T11:35:52;10.20;;;9.30;;
4206;SDS011;2117;47.972;7.830;2023-09-12T11:38:29;11.13;;;8.93;;
4206;SDS011;2117;47.972;7.830;2023-09-12T11:40:55;10.60;;;8.05;;
4206;SDS011;2117;47.972;7.830;2023-09-12T11:43:24;9.32;;;8.48;;
4206;SDS011;2117;47.972;7.830;2023-09-12T11:45:52;9.70;;;8.68;;
4206;SDS011;2117;47.972;7.830;2023-09-12T11:48:19;12.38;;;8.65;;
4206;SDS011;2117;47.972;7.830;2023-09-12T11:50:54;9.50;;;8.43;;
4206;SDS011;2117;47.972;7.830;2023-09-12T11:53:21;9.25;;;8.35;;
4206;SDS011;2117;47.972;7.830;2023-09-12T11:55:53;10.65;;;9.70;;
4206;SDS011;2117;47.972;7.830;2023-09-12T11:58:21;9.80;;;8.95;;
4206;SDS011;2117;47.972;7.830;2023-09-12T12:00:48;8.82;;;7.80;;
4206;SDS011;2117;47.972;7.830;2023-09-12T12:03:15;11.70;;;9.05;;
4206;SDS011;2117;47.972;7.830;2023-09-12T12:05:42;9.80;;;8.90;;
4206;SDS011;2117;47.972;7.830;2023-09-12T12:08:08;9.82;;;8.93;;
4206;SDS011;2117;47.972;7.830;2023-09-12T12:10:35;10.90;;;9.80;;
4206;SDS011;2117;47.972;7.830;2023-09-12T12:13:04;14.35;;;10.20;;
4206;SDS011;2117;47.972;7.830;2023-09-12T12:15:29;20.73;;;10.93;;
4206;SDS011;2117;47.972;7.830;2023-09-12T12:17:55;10.45;;;9.35;;
4206;SDS011;2117;47.972;7.830;2023-09-12T12:20:21;10.35;;;9.35;;
4206;SDS011;2117;47.972;7.830;2023-09-12T12:22:47;12.93;;;9.85;;
4206;SDS011;2117;47.972;7.830;2023-09-12T12:25:13;11.15;;;8.93;;
4206;SDS011;2117;47.972;7.830;2023-09-12T12:27:40;10.38;;;9.27;;
4206;SDS011;2117;47.972;7.830;2023-09-12T12:30:07;10.52;;;9.43;;
4206;SDS011;2117;47.972;7.830;2023-09-12T12:32:44;17.30;;;9.52;;
4206;SDS011;2117;47.972;7.830;2023-09-12T12:35:18;11.07;;;9.98;;
4206;SDS011;2117;47.972;7.830;2023-09-12T12:37:44;10.75;;;9.25;;
4206;SDS011;2117;47.972;7.830;2023-09-12T12:40:13;13.10;;;9.73;;
4206;SDS011;2117;47.972;7.830;2023-09-12T12:42:39;12.00;;;10.88;;
4206;SDS011;2117;47.972;7.830;2023-09-12T12:45:19;13.27;;;10.32;;
4206;SDS011;2117;47.972;7.830;2023-09-12T12:47:46;13.73;;;9.85;;
4206;SDS011;2117;47.972;7.830;2023-09-12T12:50:16;11.55;;;9.82;;
4206;SDS011;2117;47.972;7.830;2023-09-12T12:52:46;11.20;;;10.10;;
4206;SDS011;2117;47.972;7.830;2023-09-12T12:55:12;14.43;;;10.23;;
4206;SDS011;2117;47.972;7.830;2023-09-12T12:57:41;12.65;;;11.18;;
4206;SDS011;2117;47.972;7.830;2023-09-12T13:02:35;10.05;;;9.07;;
4206;SDS011;2117;47.972;7.830;2023-09-12T13:05:04;12.05;;;9.95;;
4206;SDS011;2117;47.972;7.830;2023-09-12T13:07:33;12.90;;;11.60;;
4206;SDS011;2117;47.972;7.830;2023-09-12T13:10:00;14.40;;;10.23;;
4206;SDS011;2117;47.972;7.830;2023-09-12T13:12:27;14.32;;;10.50;;
4206;SDS011;2117;47.972;7.830;2023-09-12T13:14:52;12.80;;;9.70;;
4206;SDS011;2117;47.972;7.830;2023-09-12T13:17:18;12.63;;;11.38;;
4206;SDS011;2117;47.972;7.830;2023-09-12T13:19:44;12.55;;;10.32;;
4206;SDS011;2117;47.972;7.830;2023-09-12T13:22:10;10.68;;;9.38;;
4206;SDS011;2117;47.972;7.830;2023-09-12T13:24:35;10.23;;;9.20;;
4206;SDS011;2117;47.972;7.830;2023-09-12T13:27:01;11.20;;;10.30;;
4206;SDS011;2117;47.972;7.830;2023-09-12T13:29:27;11.20;;;9.63;;
4206;SDS011;2117;47.972;7.830;2023-09-12T13:31:52;9.98;;;9.07;;
4206;SDS011;2117;47.972;7.830;2023-09-12T13:34:18;9.73;;;8.82;;
4206;SDS011;2117;47.972;7.830;2023-09-12T13:36:43;10.30;;;8.88;;
4206;SDS011;2117;47.972;7.830;2023-09-12T13:39:09;11.43;;;9.48;;
4206;SDS011;2117;47.972;7.830;2023-09-12T13:41:37;8.02;;;7.20;;
4206;SDS011;2117;47.972;7.830;2023-09-12T13:44:05;7.80;;;6.15;;
4206;SDS011;2117;47.972;7.830;2023-09-12T13:46:30;9.18;;;6.35;;
4206;SDS011;2117;47.972;7.830;2023-09-12T13:48:56;9.82;;;6.32;;
4206;SDS011;2117;47.972;7.830;2023-09-12T13:51:25;7.05;;;5.78;;
4206;SDS011;2117;47.972;7.830;2023-09-12T13:53:51;10.38;;;6.53;;
4206;SDS011;2117;47.972;7.830;2023-09-12T13:56:17;8.70;;;5.95;;
4206;SDS011;2117;47.972;7.830;2023-09-12T13:58:42;8.23;;;6.35;;
4206;SDS011;2117;47.972;7.830;2023-09-12T14:01:08;10.35;;;6.72;;
4206;SDS011;2117;47.972;7.830;2023-09-12T14:03:34;9.80;;;5.93;;
4206;SDS011;2117;47.972;7.830;2023-09-12T14:05:59;6.85;;;6.15;;
4206;SDS011;2117;47.972;7.830;2023-09-12T14:08:25;6.28;;;5.75;;
4206;SDS011;2117;47.972;7.830;2023-09-12T14:10:50;7.20;;;6.50;;
4206;SDS011;2117;47.972;7.830;2023-09-12T14:13:16;6.90;;;6.30;;
4206;SDS011;2117;47.972;7.830;2023-09-12T14:15:41;7.82;;;6.55;;
4206;SDS011;2117;47.972;7.830;2023-09-12T14:18:07;8.60;;;6.88;;
4206;SDS011;2117;47.972;7.830;2023-09-12T14:20:33;11.90;;;7.00;;
4206;SDS011;2117;47.972;7.830;2023-09-12T14:22:58;6.95;;;5.97;;
4206;SDS011;2117;47.972;7.830;2023-09-12T14:25:24;9.25;;;6.45;;
4206;SDS011;2117;47.972;7.830;2023-09-12T14:27:50;8.00;;;7.18;;
4206;SDS011;2117;47.972;7.830;2023-09-12T14:30:15;8.88;;;6.30;;
4206;SDS011;2117;47.972;7.830;2023-09-12T14:32:41;26.40;;;8.57;;
4206;SDS011;2117;47.972;7.830;2023-09-12T14:35:07;9.73;;;7.03;;
4206;SDS011;2117;47.972;7.830;2023-09-12T14:37:32;12.95;;;7.55;;
4206;SDS011;2117;47.972;7.830;2023-09-12T14:39:58;12.00;;;8.13;;
4206;SDS011;2117;47.972;7.830;2023-09-12T14:42:25;10.63;;;8.57;;
4206;SDS011;2117;47.972;7.830;2023-09-12T14:44:51;12.20;;;7.90;;
4206;SDS011;2117;47.972;7.830;2023-09-12T14:47:16;8.70;;;7.90;;
4206;SDS011;2117;47.972;7.830;2023-09-12T14:49:42;11.55;;;7.65;;
4206;SDS011;2117;47.972;7.830;2023-09-12T14:52:07;16.02;;;8.95;;
4206;SDS011;2117;47.972;7.830;2023-09-12T14:54:33;12.57;;;9.07;;
4206;SDS011;2117;47.972;7.830;2023-09-12T14:56:59;9.38;;;8.38;;
4206;SDS011;2117;47.972;7.830;2023-09-12T14:59:24;9.82;;;8.00;;
4206;SDS011;2117;47.972;7.830;2023-09-12T15:01:50;9.40;;;7.22;;
4206;SDS011;2117;47.972;7.830;2023-09-12T15:04:15;15.43;;;9.18;;
4206;SDS011;2117;47.972;7.830;2023-09-12T15:06:41;14.98;;;8.40;;
4206;SDS011;2117;47.972;7.830;2023-09-12T15:09:07;8.77;;;7.97;;
4206;SDS011;2117;47.972;7.830;2023-09-12T15:11:32;8.52;;;7.72;;
4206;SDS011;2117;47.972;7.830;2023-09-12T15:13:58;9.00;;;8.10;;
4206;SDS011;2117;47.972;7.830;2023-09-12T15:16:25;10.95;;;8.65;;
4206;SDS011;2117;47.972;7.830;2023-09-12T15:18:51;8.85;;;7.95;;
4206;SDS011;2117;47.972;7.830;2023-09-12T15:21:17;9.45;;;8.45;;
4206;SDS011;2117;47.972;7.830;2023-09-12T15:23:42;9.00;;;7.85;;
4206;SDS011;2117;47.972;7.830;2023-09-12T15:26:08;10.60;;;9.30;;
4206;SDS011;2117;47.972;7.830;2023-09-12T15:28:34;9.18;;;8.27;;
4206;SDS011;2117;47.972;7.830;2023-09-12T15:30:59;11.80;;;8.38;;
4206;SDS011;2117;47.972;7.830;2023-09-12T15:33:28;11.98;;;7.70;;
4206;SDS011;2117;47.972;7.830;2023-09-12T15:35:53;9.80;;;8.60;;
4206;SDS011;2117;47.972;7.830;2023-09-12T15:38:19;9.63;;;8.63;;
4206;SDS011;2117;47.972;7.830;2023-09-12T15:40:44;8.93;;;8.02;;
4206;SDS011;2117;47.972;7.830;2023-09-12T15:43:10;10.40;;;9.35;;
4206;SDS011;2117;47.972;7.830;2023-09-12T15:45:36;9.40;;;8.57;;
4206;SDS011;2117;47.972;7.830;2023-09-12T15:48:01;12.45;;;9.23;;
4206;SDS011;2117;47.972;7.830;2023-09-12T15:50:27;10.32;;;9.23;;
4206;SDS011;2117;47.972;7.830;2023-09-12T15:52:52;8.80;;;8.00;;
4206;SDS011;2117;47.972;7.830;2023-09-12T15:55:18;15.67;;;8.97;;
4206;SDS011;2117;47.972;7.830;2023-09-12T15:57:43;10.10;;;8.30;;
4206;SDS011;2117;47.972;7.830;2023-09-12T16:00:09;14.90;;;9.00;;
4206;SDS011;2117;47.972;7.830;2023-09-12T16:02:38;18.70;;;9.20;;
4206;SDS011;2117;47.972;7.830;2023-09-12T16:05:05;9.13;;;8.23;;